createdAt,value
2022-08-28T00:01:01.322Z,19.88
2022-08-28T00:04:04.742Z,19.87
2022-08-28T00:07:08.851Z,19.92
2022-08-28T00:10:13.844Z,19.91
2022-08-28T00:13:20.585Z,19.83
2022-08-28T00:16:23.543Z,19.91
2022-08-28T00:19:29.396Z,19.95
2022-08-28T00:22:34.108Z,19.87
2022-08-28T00:25:37.329Z,19.98
2022-08-28T00:28:38.823Z,20.11
2022-08-28T00:31:41.516Z,20.14
2022-08-28T00:34:44.387Z,20.24
2022-08-28T00:37:48.462Z,20.22
2022-08-28T00:40:54.599Z,20.25
2022-08-28T00:44:08.268Z,20.24
2022-08-28T00:47:11.015Z,20.15
2022-08-28T00:50:17.894Z,20.08
2022-08-28T00:53:21.366Z,19.95
2022-08-28T00:56:29.153Z,19.80
2022-08-28T00:59:31.767Z,19.69
2022-08-28T01:02:34.447Z,19.69
2022-08-28T01:05:37.949Z,19.68
2022-08-28T01:08:44.400Z,19.71
2022-08-28T01:11:54.906Z,19.73
2022-08-28T01:15:00.966Z,19.79
2022-08-28T01:18:08.615Z,19.80
2022-08-28T01:21:16.860Z,19.67
2022-08-28T01:24:24.763Z,19.53
2022-08-28T01:27:28.118Z,19.44
2022-08-28T01:30:31.880Z,19.34
2022-08-28T01:33:34.500Z,19.19
2022-08-28T01:36:37.805Z,19.09
2022-08-28T01:39:41.840Z,19.07
2022-08-28T01:42:45.311Z,19.29
2022-08-28T01:45:53.269Z,19.49
2022-08-28T01:48:55.945Z,19.55
2022-08-28T01:51:59.148Z,19.76
2022-08-28T01:55:05.086Z,19.81
2022-08-28T01:58:08.882Z,19.88
2022-08-28T02:01:12.193Z,20.00
2022-08-28T02:04:14.996Z,20.07
2022-08-28T02:07:17.830Z,20.02
2022-08-28T02:10:25.459Z,20.03
2022-08-28T02:13:28.318Z,20.04
2022-08-28T02:16:30.933Z,20.08
2022-08-28T02:19:33.555Z,20.08
2022-08-28T02:22:36.378Z,20.04
2022-08-28T02:25:40.441Z,20.04
2022-08-28T02:28:43.412Z,20.06
2022-08-28T02:31:46.078Z,19.98
2022-08-28T02:34:48.688Z,20.02
2022-08-28T02:37:52.102Z,20.03
2022-08-28T02:40:58.873Z,20.03
2022-08-28T02:44:01.499Z,20.02
2022-08-28T02:47:05.023Z,20.04
2022-08-28T02:50:09.025Z,20.11
2022-08-28T02:53:12.171Z,20.06
2022-08-28T02:56:16.609Z,20.05
2022-08-28T02:59:19.215Z,20.03
2022-08-28T03:02:21.816Z,20.03
2022-08-28T03:05:26.898Z,20.06
2022-08-28T03:08:30.188Z,19.97
2022-08-28T03:11:34.802Z,19.93
2022-08-28T03:14:37.368Z,19.92
2022-08-28T03:17:40.576Z,19.91
2022-08-28T03:20:45.530Z,19.91
2022-08-28T03:23:48.173Z,19.90
2022-08-28T03:26:52.230Z,19.91
2022-08-28T03:29:54.884Z,19.99
2022-08-28T03:32:57.558Z,20.05
2022-08-28T03:36:00.373Z,20.06
2022-08-28T03:39:07.792Z,20.13
2022-08-28T03:42:11.968Z,20.11
2022-08-28T03:45:16.379Z,20.05
2022-08-28T03:48:19.521Z,20.04
2022-08-28T03:51:29.295Z,20.00
2022-08-28T03:54:32.709Z,19.97
2022-08-28T03:57:36.943Z,19.92
2022-08-28T04:00:40.208Z,19.90
2022-08-28T04:03:42.786Z,19.88
2022-08-28T04:06:45.385Z,19.90
2022-08-28T04:09:48.394Z,19.96
2022-08-28T04:12:53.722Z,19.98
2022-08-28T04:15:58.273Z,19.96
2022-08-28T04:19:01.011Z,19.97
2022-08-28T04:22:03.978Z,20.02
2022-08-28T04:25:08.321Z,20.00
2022-08-28T04:28:12.457Z,20.00
2022-08-28T04:31:15.959Z,19.96
2022-08-28T04:34:18.774Z,20.00
2022-08-28T04:37:21.489Z,20.03
2022-08-28T04:40:27.247Z,20.10
2022-08-28T04:43:31.454Z,20.04
2022-08-28T04:46:34.115Z,20.06
2022-08-28T04:49:37.106Z,20.04
2022-08-28T04:52:39.842Z,20.08
2022-08-28T04:55:53.858Z,20.05
2022-08-28T04:58:58.840Z,20.04
2022-08-28T05:02:01.596Z,20.04
2022-08-28T05:05:04.938Z,20.06
2022-08-28T05:08:07.625Z,20.07
2022-08-28T05:11:12.407Z,20.10
2022-08-28T05:14:17.095Z,20.14
2022-08-28T05:17:19.813Z,20.16
2022-08-28T05:20:22.508Z,20.25
2022-08-28T05:23:25.717Z,20.29
2022-08-28T05:26:30.122Z,20.22
2022-08-28T05:29:34.387Z,20.16
2022-08-28T05:32:37.030Z,20.28
2022-08-28T05:35:41.573Z,20.31
2022-08-28T05:38:45.522Z,20.33
2022-08-28T05:41:48.150Z,20.25
2022-08-28T05:44:54.681Z,20.30
2022-08-28T05:47:57.571Z,20.29
2022-08-28T05:51:01.916Z,20.36
2022-08-28T05:54:05.939Z,20.50
2022-08-28T05:57:08.633Z,20.49
2022-08-28T06:00:13.808Z,20.70
2022-08-28T06:03:16.413Z,20.82
2022-08-28T06:06:19.245Z,20.97
2022-08-28T06:09:28.812Z,21.01
2022-08-28T06:12:32.325Z,21.10
2022-08-28T06:15:42.645Z,21.18
2022-08-28T06:18:46.231Z,21.25
2022-08-28T06:21:51.477Z,21.07
2022-08-28T06:24:54.450Z,21.17
2022-08-28T06:27:57.202Z,21.16
2022-08-28T06:31:23.177Z,21.12
2022-08-28T06:34:26.968Z,21.08
2022-08-28T06:37:29.406Z,21.09
2022-08-28T06:40:32.059Z,21.22
2022-08-28T06:43:34.757Z,21.36
2022-08-28T06:46:39.091Z,21.53
2022-08-28T06:49:41.829Z,21.80
2022-08-28T06:52:44.637Z,22.18
2022-08-28T06:55:52.656Z,22.21
2022-08-28T06:58:56.696Z,22.35
2022-08-28T07:02:00.790Z,22.21
2022-08-28T07:05:03.585Z,22.39
2022-08-28T07:08:06.276Z,22.52
2022-08-28T07:11:14.304Z,22.63
2022-08-28T07:14:16.851Z,22.72
2022-08-28T07:17:21.111Z,22.79
2022-08-28T07:20:23.864Z,22.93
2022-08-28T07:23:26.840Z,23.15
2022-08-28T07:26:29.656Z,23.25
2022-08-28T07:29:35.401Z,23.36
2022-08-28T07:32:39.622Z,23.26
2022-08-28T07:35:44.612Z,23.28
2022-08-28T07:38:47.743Z,23.33
2022-08-28T07:41:50.374Z,23.24
2022-08-28T07:44:54.565Z,23.00
2022-08-28T07:47:58.764Z,22.75
2022-08-28T07:51:01.408Z,22.66
2022-08-28T07:54:04.895Z,22.87
2022-08-28T07:57:10.563Z,22.54
2022-08-28T08:00:14.262Z,22.85
2022-08-28T08:03:18.489Z,22.78
2022-08-28T08:06:21.401Z,23.33
2022-08-28T08:09:24.389Z,23.57
2022-08-28T08:12:27.928Z,24.08
2022-08-28T08:15:34.494Z,24.57
2022-08-28T08:18:39.032Z,24.33
2022-08-28T08:21:43.274Z,24.57
2022-08-28T08:24:46.184Z,24.53
2022-08-28T08:27:48.843Z,23.68
2022-08-28T08:31:03.912Z,24.16
2022-08-28T08:34:09.888Z,24.27
2022-08-28T08:37:13.400Z,24.78
2022-08-28T08:40:19.488Z,24.96
2022-08-28T08:43:23.931Z,25.51
2022-08-28T08:46:32.493Z,25.78
2022-08-28T08:49:38.187Z,25.71
2022-08-28T08:52:53.884Z,25.58
2022-08-28T08:55:58.254Z,25.48
2022-08-28T08:59:01.427Z,25.66
2022-08-28T09:02:05.233Z,26.08
2022-08-28T09:05:13.448Z,26.54
2022-08-28T09:08:32.432Z,26.95
2022-08-28T09:11:44.742Z,26.70
2022-08-28T09:14:57.236Z,27.04
2022-08-28T09:18:09.506Z,27.20
2022-08-28T09:21:29.399Z,27.66
2022-08-28T09:24:33.833Z,26.86
2022-08-28T09:27:37.904Z,27.24
2022-08-28T09:30:43.808Z,28.17
2022-08-28T09:33:48.498Z,28.45
2022-08-28T09:36:53.793Z,27.59
2022-08-28T09:40:15.223Z,26.67
2022-08-28T09:43:27.969Z,26.70
2022-08-28T09:46:32.574Z,27.05
2022-08-28T09:49:35.247Z,27.21
2022-08-28T09:52:39.463Z,27.70
2022-08-28T09:55:51.319Z,28.20
2022-08-28T09:58:59.552Z,27.82
2022-08-28T10:02:14.545Z,27.43
2022-08-28T10:05:20.497Z,27.40
2022-08-28T10:08:42.292Z,27.58
2022-08-28T10:11:49.812Z,27.59
2022-08-28T10:14:57.305Z,27.68
2022-08-28T10:18:15.189Z,27.85
2022-08-28T10:21:23.278Z,28.72
2022-08-28T10:24:37.989Z,28.09
2022-08-28T10:27:53.184Z,27.59
2022-08-28T10:31:09.905Z,27.42
2022-08-28T10:34:27.945Z,27.78
2022-08-28T10:37:40.019Z,27.53
2022-08-28T10:40:52.434Z,28.42
2022-08-28T10:43:55.836Z,27.91
2022-08-28T10:46:59.150Z,27.50
2022-08-28T10:50:06.625Z,29.00
2022-08-28T10:53:12.834Z,29.32
2022-08-28T10:56:20.815Z,29.18
2022-08-28T10:59:23.785Z,28.82
2022-08-28T11:02:27.762Z,27.64
2022-08-28T11:05:32.653Z,27.86
2022-08-28T11:08:37.219Z,27.84
2022-08-28T11:11:45.094Z,28.43
2022-08-28T11:14:49.504Z,29.11
2022-08-28T11:17:53.714Z,29.30
2022-08-28T11:20:58.869Z,29.21
2022-08-28T11:24:05.036Z,29.00
2022-08-28T11:27:22.646Z,28.54
2022-08-28T11:30:33.052Z,28.59
2022-08-28T11:33:39.842Z,28.85
2022-08-28T11:37:04.590Z,29.62
2022-08-28T11:40:20.625Z,29.24
2022-08-28T11:43:37.340Z,30.35
2022-08-28T11:46:41.165Z,29.76
2022-08-28T11:49:45.809Z,29.27
2022-08-28T11:53:18.429Z,28.68
2022-08-28T11:56:37.635Z,28.39
2022-08-28T12:00:02.787Z,29.18
2022-08-28T12:03:13.690Z,29.41
2022-08-28T12:06:16.668Z,29.62
2022-08-28T12:09:40.063Z,29.86
2022-08-28T12:12:54.135Z,30.88
2022-08-28T12:16:06.231Z,31.15
2022-08-28T12:19:09.364Z,30.21
2022-08-28T12:22:13.714Z,29.00
2022-08-28T12:25:27.910Z,28.70
2022-08-28T12:28:32.849Z,29.00
2022-08-28T12:32:14.940Z,28.76
2022-08-28T12:35:21.002Z,29.00
2022-08-28T12:38:23.726Z,28.88
2022-08-28T12:41:26.310Z,29.69
2022-08-28T12:44:30.957Z,28.14
2022-08-28T12:47:35.862Z,28.34
2022-08-28T12:50:39.731Z,27.94
2022-08-28T12:53:44.549Z,30.22
2022-08-28T12:56:47.308Z,36.30
2022-08-28T12:59:50.264Z,38.01
2022-08-28T13:02:56.272Z,38.98
2022-08-28T13:06:04.000Z,41.78
2022-08-28T13:09:08.654Z,39.41
2022-08-28T13:12:21.344Z,35.66
2022-08-28T13:15:42.930Z,38.10
2022-08-28T13:18:51.312Z,40.90
2022-08-28T13:22:00.257Z,41.96
2022-08-28T13:25:03.858Z,40.45
2022-08-28T13:28:13.879Z,43.52
2022-08-28T13:31:23.955Z,42.94
2022-08-28T13:34:29.371Z,40.86
2022-08-28T13:37:44.448Z,36.30
2022-08-28T13:40:58.317Z,35.43
2022-08-28T13:44:01.253Z,33.78
2022-08-28T13:47:06.705Z,39.36
2022-08-28T13:50:11.007Z,40.43
2022-08-28T13:53:14.218Z,41.83
2022-08-28T13:56:17.010Z,44.16
2022-08-28T13:59:20.760Z,46.80
2022-08-28T14:02:41.540Z,43.14
2022-08-28T14:05:45.540Z,38.50
2022-08-28T14:08:48.194Z,34.12
2022-08-28T14:11:50.902Z,32.45
2022-08-28T14:14:53.697Z,36.04
2022-08-28T14:17:56.494Z,42.16
2022-08-28T14:21:00.479Z,44.92
2022-08-28T14:24:03.587Z,43.36
2022-08-28T14:27:06.293Z,46.21
2022-08-28T14:30:10.253Z,47.28
2022-08-28T14:33:16.860Z,48.85
2022-08-28T14:36:22.975Z,46.07
2022-08-28T14:39:27.446Z,42.14
2022-08-28T14:42:30.315Z,42.25
2022-08-28T14:45:32.990Z,45.81
2022-08-28T14:48:35.796Z,48.14
2022-08-28T14:51:42.091Z,46.92
2022-08-28T14:54:44.705Z,48.98
2022-08-28T14:57:48.838Z,51.00
2022-08-28T15:00:54.416Z,49.34
2022-08-28T15:03:57.797Z,48.80
2022-08-28T15:07:03.958Z,47.73
2022-08-28T15:10:07.810Z,48.18
2022-08-28T15:13:12.646Z,46.18
2022-08-28T15:16:17.894Z,47.54
2022-08-28T15:19:23.296Z,46.92
2022-08-28T15:22:27.640Z,45.35
2022-08-28T15:25:30.224Z,43.26
2022-08-28T15:28:33.117Z,42.42
2022-08-28T15:31:38.303Z,38.73
2022-08-28T15:34:42.610Z,38.20
2022-08-28T15:37:46.591Z,35.29
2022-08-28T15:41:07.166Z,32.80
2022-08-28T15:44:14.438Z,32.74
2022-08-28T15:47:18.136Z,33.61
2022-08-28T15:50:21.285Z,39.34
2022-08-28T15:53:26.428Z,41.53
2022-08-28T15:56:29.222Z,41.84
2022-08-28T15:59:48.454Z,42.63
2022-08-28T16:02:51.860Z,40.23
2022-08-28T16:05:55.044Z,39.32
2022-08-28T16:08:59.091Z,38.97
2022-08-28T16:12:01.909Z,40.64
2022-08-28T16:15:05.226Z,39.62
2022-08-28T16:18:09.378Z,42.85
2022-08-28T16:21:12.960Z,42.44
2022-08-28T16:24:17.279Z,41.32
2022-08-28T16:27:19.938Z,38.49
2022-08-28T16:30:24.688Z,37.09
2022-08-28T16:33:28.000Z,34.91
2022-08-28T16:36:31.090Z,34.52
2022-08-28T16:39:35.282Z,36.57
2022-08-28T16:42:38.092Z,35.45
2022-08-28T16:45:43.943Z,33.55
2022-08-28T16:48:47.140Z,30.35
2022-08-28T16:51:49.987Z,29.27
2022-08-28T16:54:54.565Z,28.52
2022-08-28T16:57:57.246Z,28.12
2022-08-28T17:01:00.051Z,28.50
2022-08-28T17:04:03.358Z,27.85
2022-08-28T17:07:06.215Z,27.31
2022-08-28T17:10:13.345Z,27.36
2022-08-28T17:13:16.572Z,27.39
2022-08-28T17:16:20.489Z,27.28
2022-08-28T17:19:24.836Z,27.22
2022-08-28T17:22:33.101Z,27.13
2022-08-28T17:25:37.390Z,26.99
2022-08-28T17:28:40.087Z,26.96
2022-08-28T17:31:42.576Z,26.83
2022-08-28T17:34:45.337Z,26.64
2022-08-28T17:37:47.976Z,26.37
2022-08-28T17:40:53.288Z,26.23
2022-08-28T17:43:56.140Z,26.25
2022-08-28T17:46:58.855Z,26.20
2022-08-28T17:50:01.775Z,26.03
2022-08-28T17:53:04.978Z,25.84
2022-08-28T17:56:09.456Z,25.56
2022-08-28T17:59:13.148Z,25.32
2022-08-28T18:02:16.882Z,25.17
2022-08-28T18:05:19.555Z,25.03
2022-08-28T18:08:22.543Z,24.86
2022-08-28T18:11:26.428Z,24.58
2022-08-28T18:14:29.210Z,24.30
2022-08-28T18:17:31.676Z,24.18
2022-08-28T18:20:34.527Z,24.08
2022-08-28T18:23:37.320Z,23.93
2022-08-28T18:26:41.473Z,23.70
2022-08-28T18:29:44.534Z,23.51
2022-08-28T18:32:47.398Z,23.39
2022-08-28T18:35:50.108Z,23.29
2022-08-28T18:38:54.337Z,23.20
2022-08-28T18:41:59.129Z,23.20
2022-08-28T18:45:02.114Z,23.21
2022-08-28T18:48:05.575Z,23.20
2022-08-28T18:51:09.193Z,22.99
2022-08-28T18:54:13.012Z,22.87
2022-08-28T18:57:18.571Z,22.71
2022-08-28T19:00:21.820Z,22.53
2022-08-28T19:03:24.504Z,22.45
2022-08-28T19:06:27.225Z,22.42
2022-08-28T19:09:32.401Z,22.39
2022-08-28T19:12:37.586Z,22.54
2022-08-28T19:15:40.220Z,22.58
2022-08-28T19:18:42.998Z,22.58
2022-08-28T19:21:45.593Z,22.60
2022-08-28T19:24:49.231Z,22.56
2022-08-28T19:27:56.268Z,22.51
2022-08-28T19:31:01.321Z,22.48
2022-08-28T19:34:04.153Z,22.41
2022-08-28T19:37:06.854Z,22.38
2022-08-28T19:40:11.297Z,22.26
2022-08-28T19:43:16.743Z,22.06
2022-08-28T19:46:20.630Z,21.93
2022-08-28T19:49:23.786Z,21.82
2022-08-28T19:52:26.374Z,21.65
2022-08-28T19:55:29.485Z,21.61
2022-08-28T19:58:33.498Z,21.57
2022-08-28T20:01:39.580Z,21.45
2022-08-28T20:04:42.403Z,21.37
2022-08-28T20:07:45.517Z,21.27
2022-08-28T20:10:48.107Z,21.19
2022-08-28T20:13:53.078Z,21.22
2022-08-28T20:16:55.942Z,21.16
2022-08-28T20:20:02.403Z,21.08
2022-08-28T20:23:06.372Z,21.03
2022-08-28T20:26:10.641Z,21.00
2022-08-28T20:29:15.148Z,20.96
2022-08-28T20:32:17.798Z,20.97
2022-08-28T20:35:22.147Z,20.89
2022-08-28T20:38:27.383Z,20.82
2022-08-28T20:41:30.053Z,20.77
2022-08-28T20:44:34.197Z,20.78
2022-08-28T20:47:36.779Z,20.73
2022-08-28T20:50:39.320Z,20.79
2022-08-28T20:53:42.065Z,20.73
2022-08-28T20:56:44.585Z,20.57
2022-08-28T20:59:48.769Z,20.43
2022-08-28T21:02:51.797Z,20.29
2022-08-28T21:05:54.337Z,20.08
2022-08-28T21:08:57.132Z,20.02
2022-08-28T21:11:59.907Z,20.11
2022-08-28T21:15:05.151Z,20.20
2022-08-28T21:18:08.214Z,20.21
2022-08-28T21:21:13.261Z,20.21
2022-08-28T21:24:18.706Z,20.19
2022-08-28T21:27:22.021Z,20.02
2022-08-28T21:30:29.748Z,19.93
2022-08-28T21:33:32.596Z,19.89
2022-08-28T21:36:35.377Z,20.06
2022-08-28T21:39:38.396Z,20.00
2022-08-28T21:42:41.359Z,19.84
2022-08-28T21:45:45.518Z,20.04
2022-08-28T21:48:49.420Z,19.90
2022-08-28T21:51:52.007Z,19.89
2022-08-28T21:54:57.943Z,19.88
2022-08-28T21:58:00.716Z,19.69
2022-08-28T22:01:04.995Z,19.70
2022-08-28T22:04:07.704Z,19.78
2022-08-28T22:07:11.978Z,19.86
2022-08-28T22:10:14.996Z,19.72
2022-08-28T22:13:17.984Z,19.70
2022-08-28T22:16:22.614Z,19.85
2022-08-28T22:19:25.374Z,19.79
2022-08-28T22:22:45.645Z,19.70
2022-08-28T22:25:48.451Z,19.57
2022-08-28T22:28:51.177Z,19.50
2022-08-28T22:31:55.404Z,19.42
2022-08-28T22:34:58.111Z,19.28
2022-08-28T22:38:00.737Z,19.15
2022-08-28T22:41:03.405Z,18.95
2022-08-28T22:44:06.966Z,18.89
2022-08-28T22:47:11.349Z,18.92
2022-08-28T22:50:13.954Z,18.80
2022-08-28T22:53:18.019Z,18.73
2022-08-28T22:56:21.169Z,18.68
2022-08-28T22:59:23.953Z,18.61
2022-08-28T23:02:28.891Z,18.52
2022-08-28T23:05:33.460Z,18.44
2022-08-28T23:08:36.233Z,18.38
2022-08-28T23:11:39.197Z,18.43
2022-08-28T23:14:44.260Z,18.40
2022-08-28T23:17:51.974Z,18.43
2022-08-28T23:20:55.184Z,18.41
2022-08-28T23:23:58.859Z,18.39
2022-08-28T23:27:19.390Z,18.39
2022-08-28T23:30:24.885Z,18.31
2022-08-28T23:33:29.641Z,18.28
2022-08-28T23:36:32.421Z,18.19
2022-08-28T23:39:38.268Z,18.18
2022-08-28T23:42:40.934Z,18.12
2022-08-28T23:45:44.424Z,18.16
2022-08-28T23:48:49.627Z,18.08
2022-08-28T23:51:52.631Z,18.07
2022-08-28T23:54:55.267Z,18.02
2022-08-28T23:57:57.896Z,17.99
